sensor_id;sensor_type;location;lat;lon;timestamp;pressure;altitude;pressure_sealevel;temperature;humidity
2036;BME280;23642;42.658;23.350;2022-12-29T00:01:23;50754.13;;;-146.31;95.73
2036;BME280;23642;42.658;23.350;2022-12-29T00:03:50;50799.50;;;-146.31;94.90
2036;BME280;23642;42.658;23.350;2022-12-29T00:06:17;50772.69;;;-146.31;94.61
2036;BME280;23642;42.658;23.350;2022-12-29T00:08:43;50797.44;;;-146.31;94.89
2036;BME280;23642;42.658;23.350;2022-12-29T00:11:13;50803.63;;;-146.31;95.22
2036;BME280;23642;42.658;23.350;2022-12-29T00:13:41;50787.13;;;-146.31;95.34
2036;BME280;23642;42.658;23.350;2022-12-29T00:16:26;50762.38;;;-146.31;95.40
2036;BME280;23642;42.658;23.350;2022-12-29T00:18:53;50789.19;;;-146.31;94.93
2036;BME280;23642;42.658;23.350;2022-12-29T00:21:21;50789.19;;;-146.31;95.14
2036;BME280;23642;42.658;23.350;2022-12-29T00:24:08;50797.44;;;-146.31;95.03
2036;BME280;23642;42.658;23.350;2022-12-29T00:26:56;50780.94;;;-146.31;95.24
2036;BME280;23642;42.658;23.350;2022-12-29T00:29:42;50803.63;;;-146.31;95.05
2036;BME280;23642;42.658;23.350;2022-12-29T00:32:27;50774.75;;;-146.31;94.93
2036;BME280;23642;42.658;23.350;2022-12-29T00:35:14;50778.88;;;-146.31;94.29
2036;BME280;23642;42.658;23.350;2022-12-29T00:37:44;50799.50;;;-146.31;93.40
2036;BME280;23642;42.658;23.350;2022-12-29T00:40:26;50836.63;;;-146.31;93.17
2036;BME280;23642;42.658;23.350;2022-12-29T00:43:10;50902.63;;;-146.31;91.76
2036;BME280;23642;42.658;23.350;2022-12-29T00:45:56;50888.19;;;-146.31;92.37
2036;BME280;23642;42.658;23.350;2022-12-29T00:48:22;50882.00;;;-146.31;92.84
2036;BME280;23642;42.658;23.350;2022-12-29T00:51:03;50892.31;;;-146.31;92.94
2036;BME280;23642;42.658;23.350;2022-12-29T00:53:30;50917.06;;;-146.31;92.37
2036;BME280;23642;42.658;23.350;2022-12-29T00:55:56;50861.38;;;-146.31;92.14
2036;BME280;23642;42.658;23.350;2022-12-29T00:58:23;50919.13;;;-146.31;91.93
2036;BME280;23642;42.658;23.350;2022-12-29T01:00:50;50902.63;;;-146.31;92.35
2036;BME280;23642;42.658;23.350;2022-12-29T01:03:18;50910.88;;;-146.31;91.58
2036;BME280;23642;42.658;23.350;2022-12-29T01:05:45;50894.38;;;-146.31;92.08
2036;BME280;23642;42.658;23.350;2022-12-29T01:08:11;50912.94;;;-146.31;91.62
2036;BME280;23642;42.658;23.350;2022-12-29T01:10:38;50931.50;;;-146.31;92.26
2036;BME280;23642;42.658;23.350;2022-12-29T01:13:04;50931.50;;;-146.31;92.66
2036;BME280;23642;42.658;23.350;2022-12-29T01:15:31;50937.69;;;-146.31;92.90
2036;BME280;23642;42.658;23.350;2022-12-29T01:17:57;50939.75;;;-146.31;92.14
2036;BME280;23642;42.658;23.350;2022-12-29T01:20:25;50910.88;;;-146.31;91.82
2036;BME280;23642;42.658;23.350;2022-12-29T01:22:54;50976.88;;;-146.31;92.07
2036;BME280;23642;42.658;23.350;2022-12-29T01:25:20;50915.00;;;-146.31;92.76
2036;BME280;23642;42.658;23.350;2022-12-29T01:27:47;50972.75;;;-146.31;92.14
2036;BME280;23642;42.658;23.350;2022-12-29T01:30:14;50972.75;;;-146.31;93.12
2036;BME280;23642;42.658;23.350;2022-12-29T01:32:41;50972.75;;;-146.31;92.64
2036;BME280;23642;42.658;23.350;2022-12-29T01:35:08;50931.50;;;-146.31;92.42
2036;BME280;23642;42.658;23.350;2022-12-29T01:37:37;50945.94;;;-146.31;92.31
2036;BME280;23642;42.658;23.350;2022-12-29T01:40:04;50941.81;;;-146.31;92.48
2036;BME280;23642;42.658;23.350;2022-12-29T01:42:31;50929.44;;;-146.31;92.44
2036;BME280;23642;42.658;23.350;2022-12-29T01:45:00;50981.00;;;-146.31;93.06
2036;BME280;23642;42.658;23.350;2022-12-29T01:47:32;50931.50;;;-146.31;92.92
2036;BME280;23642;42.658;23.350;2022-12-29T01:50:04;50939.75;;;-146.31;93.41
2036;BME280;23642;42.658;23.350;2022-12-29T01:52:34;50960.38;;;-146.31;92.96
2036;BME280;23642;42.658;23.350;2022-12-29T01:55:05;50958.31;;;-146.31;93.19
2036;BME280;23642;42.658;23.350;2022-12-29T01:57:34;50931.50;;;-146.31;93.66
2036;BME280;23642;42.658;23.350;2022-12-29T02:00:05;50956.25;;;-146.31;93.48
2036;BME280;23642;42.658;23.350;2022-12-29T02:02:34;50950.06;;;-146.31;93.33
2036;BME280;23642;42.658;23.350;2022-12-29T02:05:04;50925.31;;;-146.31;93.79
2036;BME280;23642;42.658;23.350;2022-12-29T02:07:32;50910.88;;;-146.31;94.02
2036;BME280;23642;42.658;23.350;2022-12-29T02:10:02;50910.88;;;-146.31;92.93
2036;BME280;23642;42.658;23.350;2022-12-29T02:12:29;50960.38;;;-146.31;92.92
2036;BME280;23642;42.658;23.350;2022-12-29T02:14:59;50931.50;;;-146.31;93.37
2036;BME280;23642;42.658;23.350;2022-12-29T02:17:49;50910.88;;;-146.31;92.20
2036;BME280;23642;42.658;23.350;2022-12-29T02:20:41;50972.75;;;-146.31;91.78
2036;BME280;23642;42.658;23.350;2022-12-29T02:27:00;50933.56;;;-146.31;92.82
2036;BME280;23642;42.658;23.350;2022-12-29T02:29:51;50954.19;;;-146.31;92.35
2036;BME280;23642;42.658;23.350;2022-12-29T02:32:30;50981.00;;;-146.31;92.64
2036;BME280;23642;42.658;23.350;2022-12-29T02:35:05;50995.44;;;-146.31;93.44
2036;BME280;23642;42.658;23.350;2022-12-29T02:37:42;50937.69;;;-146.31;94.11
2036;BME280;23642;42.658;23.350;2022-12-29T02:40:18;50935.63;;;-146.31;94.15
2036;BME280;23642;42.658;23.350;2022-12-29T02:42:51;50931.50;;;-146.31;93.72
2036;BME280;23642;42.658;23.350;2022-12-29T02:45:22;50945.94;;;-146.31;93.78
2036;BME280;23642;42.658;23.350;2022-12-29T02:47:55;50888.19;;;-146.31;93.86
2036;BME280;23642;42.658;23.350;2022-12-29T02:50:26;50923.25;;;-146.31;94.43
2036;BME280;23642;42.658;23.350;2022-12-29T02:53:00;50919.13;;;-146.31;94.01
2036;BME280;23642;42.658;23.350;2022-12-29T02:55:28;50900.56;;;-146.31;93.93
2036;BME280;23642;42.658;23.350;2022-12-29T02:58:16;50927.38;;;-146.31;93.52
2036;BME280;23642;42.658;23.350;2022-12-29T03:00:52;50923.25;;;-146.31;93.83
2036;BME280;23642;42.658;23.350;2022-12-29T03:03:30;50906.75;;;-146.31;93.77
2036;BME280;23642;42.658;23.350;2022-12-29T03:06:13;50917.06;;;-146.31;94.01
2036;BME280;23642;42.658;23.350;2022-12-29T03:08:48;50904.69;;;-146.31;94.04
2036;BME280;23642;42.658;23.350;2022-12-29T03:11:17;50908.81;;;-146.31;93.76
2036;BME280;23642;42.658;23.350;2022-12-29T03:14:07;50912.94;;;-146.31;93.25
2036;BME280;23642;42.658;23.350;2022-12-29T03:16:56;50933.56;;;-146.31;93.09
2036;BME280;23642;42.658;23.350;2022-12-29T03:19:27;50950.06;;;-146.31;93.19
2036;BME280;23642;42.658;23.350;2022-12-29T03:21:57;50939.75;;;-146.31;93.94
2036;BME280;23642;42.658;23.350;2022-12-29T03:24:45;50943.88;;;-146.31;94.07
2036;BME280;23642;42.658;23.350;2022-12-29T03:27:18;50923.25;;;-146.31;94.56
2036;BME280;23642;42.658;23.350;2022-12-29T03:29:47;50958.31;;;-146.31;94.29
2036;BME280;23642;42.658;23.350;2022-12-29T03:32:22;50948.00;;;-146.31;95.09
2036;BME280;23642;42.658;23.350;2022-12-29T03:34:51;50948.00;;;-146.31;95.17
2036;BME280;23642;42.658;23.350;2022-12-29T03:37:23;50898.50;;;-146.31;96.06
2036;BME280;23642;42.658;23.350;2022-12-29T03:39:50;50948.00;;;-146.31;96.08
2036;BME280;23642;42.658;23.350;2022-12-29T03:42:20;50890.25;;;-146.31;96.74
2036;BME280;23642;42.658;23.350;2022-12-29T03:44:47;50925.31;;;-146.31;97.80
2036;BME280;23642;42.658;23.350;2022-12-29T03:47:15;50900.56;;;-146.31;97.92
2036;BME280;23642;42.658;23.350;2022-12-29T03:49:42;50828.38;;;-146.31;98.48
2036;BME280;23642;42.658;23.350;2022-12-29T03:52:17;50795.38;;;-146.31;98.99
2036;BME280;23642;42.658;23.350;2022-12-29T03:54:44;50752.06;;;-146.31;99.21
2036;BME280;23642;42.658;23.350;2022-12-29T03:57:17;50640.69;;;-146.31;99.58
2036;BME280;23642;42.658;23.350;2022-12-29T03:59:48;50552.00;;;-146.31;99.84
2036;BME280;23642;42.658;23.350;2022-12-29T04:02:24;50508.69;;;-146.31;99.52
2036;BME280;23642;42.658;23.350;2022-12-29T04:04:51;50510.75;;;-146.31;99.61
2036;BME280;23642;42.658;23.350;2022-12-29T04:07:19;50467.44;;;-146.31;100.00
2036;BME280;23642;42.658;23.350;2022-12-29T04:09:46;50409.69;;;-146.31;100.00
2036;BME280;23642;42.658;23.350;2022-12-29T04:12:13;50405.56;;;-146.31;100.00
2036;BME280;23642;42.658;23.350;2022-12-29T04:14:40;50341.63;;;-146.31;100.00
2036;BME280;23642;42.658;23.350;2022-12-29T04:17:07;50250.88;;;-146.31;100.00
2036;BME280;23642;42.658;23.350;2022-12-29T04:19:33;50224.06;;;-146.31;100.00
2036;BME280;23642;42.658;23.350;2022-12-29T04:22:00;50160.13;;;-146.31;100.00
2036;BME280;23642;42.658;23.350;2022-12-29T04:24:28;50127.16;;;-146.31;100.00
2036;BME280;23642;42.658;23.350;2022-12-29T04:26:55;50081.78;;;-146.31;100.00
2036;BME280;23642;42.658;23.350;2022-12-29T04:29:22;50019.91;;;-146.31;100.00
2036;BME280;23642;42.658;23.350;2022-12-29T04:31:48;49937.44;;;-146.31;100.00
2036;BME280;23642;42.658;23.350;2022-12-29T04:34:15;49902.38;;;-146.31;100.00
2036;BME280;23642;42.658;23.350;2022-12-29T04:36:42;49768.34;;;-146.31;100.00
2036;BME280;23642;42.658;23.350;2022-12-29T04:39:09;49714.72;;;-146.31;100.00
2036;BME280;23642;42.658;23.350;2022-12-29T04:41:37;49652.88;;;-146.31;100.00
2036;BME280;23642;42.658;23.350;2022-12-29T04:44:04;49541.53;;;-146.31;100.00
2036;BME280;23642;42.658;23.350;2022-12-29T04:46:31;49492.03;;;-146.31;100.00
2036;BME280;23642;42.658;23.350;2022-12-29T04:48:57;49391.03;;;-146.31;100.00
2036;BME280;23642;42.658;23.350;2022-12-29T04:51:25;49294.13;;;-146.31;100.00
2036;BME280;23642;42.658;23.350;2022-12-29T04:53:52;49242.56;;;-146.31;100.00
2036;BME280;23642;42.658;23.350;2022-12-29T04:56:19;49164.25;;;-146.31;100.00
2036;BME280;23642;42.658;23.350;2022-12-29T04:58:47;49090.03;;;-146.31;100.00
2036;BME280;23642;42.658;23.350;2022-12-29T05:01:14;48989.00;;;-146.31;100.00
2036;BME280;23642;42.658;23.350;2022-12-29T05:03:40;48906.53;;;-146.31;100.00
2036;BME280;23642;42.658;23.350;2022-12-29T05:06:07;48848.81;;;-146.31;100.00
2036;BME280;23642;42.658;23.350;2022-12-29T05:08:34;48741.63;;;-146.31;100.00
2036;BME280;23642;42.658;23.350;2022-12-29T05:11:01;48655.06;;;-146.31;100.00
2036;BME280;23642;42.658;23.350;2022-12-29T05:13:27;48584.97;;;-146.31;100.00
2036;BME280;23642;42.658;23.350;2022-12-29T05:15:56;48461.31;;;-146.31;100.00
2036;BME280;23642;42.658;23.350;2022-12-29T05:18:22;48399.47;;;-146.31;100.00
2036;BME280;23642;42.658;23.350;2022-12-29T05:20:49;48300.53;;;-146.31;100.00
2036;BME280;23642;42.658;23.350;2022-12-29T05:23:16;48232.50;;;-146.31;100.00
2036;BME280;23642;42.658;23.350;2022-12-29T05:25:43;48205.72;;;-146.31;100.00
2036;BME280;23642;42.658;23.350;2022-12-29T05:28:11;48246.94;;;-146.31;100.00
2036;BME280;23642;42.658;23.350;2022-12-29T05:30:38;48288.16;;;-146.31;100.00
2036;BME280;23642;42.658;23.350;2022-12-29T05:33:08;48312.91;;;-146.31;100.00
2036;BME280;23642;42.658;23.350;2022-12-29T05:35:36;48362.38;;;-146.31;100.00
2036;BME280;23642;42.658;23.350;2022-12-29T05:38:03;48473.66;;;-146.31;100.00
2036;BME280;23642;42.658;23.350;2022-12-29T05:40:30;48514.88;;;-146.31;100.00
2036;BME280;23642;42.658;23.350;2022-12-29T05:42:56;48624.13;;;-146.31;100.00
2036;BME280;23642;42.658;23.350;2022-12-29T05:45:23;48733.38;;;-146.31;100.00
2036;BME280;23642;42.658;23.350;2022-12-29T05:47:50;48902.41;;;-146.31;100.00
2036;BME280;23642;42.658;23.350;2022-12-29T05:50:18;48991.06;;;-146.31;100.00
2036;BME280;23642;42.658;23.350;2022-12-29T05:52:45;49054.97;;;-146.31;100.00
2036;BME280;23642;42.658;23.350;2022-12-29T05:55:12;49170.41;;;-146.31;99.85
2036;BME280;23642;42.658;23.350;2022-12-29T05:57:39;49201.34;;;-146.31;99.22
2036;BME280;23642;42.658;23.350;2022-12-29T06:00:06;49252.88;;;-146.31;99.04
2036;BME280;23642;42.658;23.350;2022-12-29T06:02:34;49300.31;;;-146.31;98.97
2036;BME280;23642;42.658;23.350;2022-12-29T06:05:00;49331.22;;;-146.31;98.49
2036;BME280;23642;42.658;23.350;2022-12-29T06:07:28;49393.09;;;-146.31;98.44
2036;BME280;23642;42.658;23.350;2022-12-29T06:09:55;49421.94;;;-146.31;97.91
2036;BME280;23642;42.658;23.350;2022-12-29T06:12:22;49504.41;;;-146.31;97.62
2036;BME280;23642;42.658;23.350;2022-12-29T06:14:49;49504.41;;;-146.31;97.10
2036;BME280;23642;42.658;23.350;2022-12-29T06:17:15;49611.63;;;-146.31;96.89
2036;BME280;23642;42.658;23.350;2022-12-29T06:19:42;49636.38;;;-146.31;96.29
2036;BME280;23642;42.658;23.350;2022-12-29T06:22:09;49694.13;;;-146.31;96.74
2036;BME280;23642;42.658;23.350;2022-12-29T06:24:39;49681.75;;;-146.31;96.41
2036;BME280;23642;42.658;23.350;2022-12-29T06:27:05;49706.47;;;-146.31;96.51
2036;BME280;23642;42.658;23.350;2022-12-29T06:29:32;49727.09;;;-146.31;96.01
2036;BME280;23642;42.658;23.350;2022-12-29T06:32:01;49793.09;;;-146.31;95.47
2036;BME280;23642;42.658;23.350;2022-12-29T06:34:28;49821.97;;;-146.31;95.56
2036;BME280;23642;42.658;23.350;2022-12-29T06:36:55;49836.38;;;-146.31;95.35
2036;BME280;23642;42.658;23.350;2022-12-29T06:39:22;49852.88;;;-146.31;95.40
2036;BME280;23642;42.658;23.350;2022-12-29T06:41:51;49875.56;;;-146.31;95.31
2036;BME280;23642;42.658;23.350;2022-12-29T06:44:18;49937.44;;;-146.31;93.79
2036;BME280;23642;42.658;23.350;2022-12-29T06:46:45;50001.34;;;-146.31;93.63
2036;BME280;23642;42.658;23.350;2022-12-29T06:49:12;50003.41;;;-146.31;93.87
2036;BME280;23642;42.658;23.350;2022-12-29T06:51:39;50026.09;;;-146.31;93.47
2036;BME280;23642;42.658;23.350;2022-12-29T06:54:06;50065.28;;;-146.31;93.24
2036;BME280;23642;42.658;23.350;2022-12-29T06:56:33;50061.16;;;-146.31;92.39
2036;BME280;23642;42.658;23.350;2022-12-29T06:59:01;50118.91;;;-146.31;92.08
2036;BME280;23642;42.658;23.350;2022-12-29T07:01:27;50133.34;;;-146.31;91.58
2036;BME280;23642;42.658;23.350;2022-12-29T07:03:54;50195.19;;;-146.31;90.94
2036;BME280;23642;42.658;23.350;2022-12-29T07:06:21;50257.06;;;-146.31;90.14
2036;BME280;23642;42.658;23.350;2022-12-29T07:08:48;50244.69;;;-146.31;90.05
2036;BME280;23642;42.658;23.350;2022-12-29T07:11:15;50296.25;;;-146.31;89.73
2036;BME280;23642;42.658;23.350;2022-12-29T07:13:41;50341.63;;;-146.31;89.62
2036;BME280;23642;42.658;23.350;2022-12-29T07:16:10;50345.75;;;-146.31;89.74
2036;BME280;23642;42.658;23.350;2022-12-29T07:18:37;50333.38;;;-146.31;89.40
2036;BME280;23642;42.658;23.350;2022-12-29T07:21:15;50430.31;;;-146.31;88.20
2036;BME280;23642;42.658;23.350;2022-12-29T07:23:42;50459.19;;;-146.31;88.00
2036;BME280;23642;42.658;23.350;2022-12-29T07:26:11;50465.38;;;-146.31;87.09
2036;BME280;23642;42.658;23.350;2022-12-29T07:28:38;50580.88;;;-146.31;85.89
2036;BME280;23642;42.658;23.350;2022-12-29T07:31:14;50576.75;;;-146.31;86.22
2036;BME280;23642;42.658;23.350;2022-12-29T07:33:42;50599.44;;;-146.31;86.22
2036;BME280;23642;42.658;23.350;2022-12-29T07:36:09;50574.69;;;-146.31;85.74
2036;BME280;23642;42.658;23.350;2022-12-29T07:38:36;50622.13;;;-146.31;84.33
2036;BME280;23642;42.658;23.350;2022-12-29T07:41:04;50630.38;;;-146.31;85.11
2036;BME280;23642;42.658;23.350;2022-12-29T07:43:31;50634.47;;;-146.31;84.78
2036;BME280;23642;42.658;23.350;2022-12-29T07:45:57;50665.44;;;-146.31;84.86
2036;BME280;23642;42.658;23.350;2022-12-29T07:48:26;50690.19;;;-146.31;84.74
2036;BME280;23642;42.658;23.350;2022-12-29T07:50:53;50684.00;;;-146.31;85.30
2036;BME280;23642;42.658;23.350;2022-12-29T07:53:20;50712.88;;;-146.31;85.52
2036;BME280;23642;42.658;23.350;2022-12-29T07:55:47;50659.25;;;-146.31;85.19
2036;BME280;23642;42.658;23.350;2022-12-29T07:58:14;50706.69;;;-146.31;83.75
2036;BME280;23642;42.658;23.350;2022-12-29T08:00:41;50756.19;;;-146.31;83.17
2036;BME280;23642;42.658;23.350;2022-12-29T08:03:07;50758.25;;;-146.31;82.57
2036;BME280;23642;42.658;23.350;2022-12-29T08:05:36;50818.06;;;-146.31;80.72
2036;BME280;23642;42.658;23.350;2022-12-29T08:08:03;50857.25;;;-146.31;80.55
2036;BME280;23642;42.658;23.350;2022-12-29T08:10:29;50867.56;;;-146.31;80.97
2036;BME280;23642;42.658;23.350;2022-12-29T08:12:57;50875.81;;;-146.31;81.25
2036;BME280;23642;42.658;23.350;2022-12-29T08:15:24;50935.63;;;-146.31;79.38
2036;BME280;23642;42.658;23.350;2022-12-29T08:17:50;50927.38;;;-146.31;80.83
2036;BME280;23642;42.658;23.350;2022-12-29T08:20:17;50935.63;;;-146.31;81.82
2036;BME280;23642;42.658;23.350;2022-12-29T08:22:45;50958.31;;;-146.31;80.80
2036;BME280;23642;42.658;23.350;2022-12-29T08:25:12;50929.44;;;-146.31;81.25
2036;BME280;23642;42.658;23.350;2022-12-29T08:27:39;50960.38;;;-146.31;82.34
2036;BME280;23642;42.658;23.350;2022-12-29T08:30:07;50910.88;;;-146.31;82.93
2036;BME280;23642;42.658;23.350;2022-12-29T08:32:34;50902.63;;;-146.31;81.60
2036;BME280;23642;42.658;23.350;2022-12-29T08:35:00;50923.25;;;-146.31;81.17
2036;BME280;23642;42.658;23.350;2022-12-29T08:37:27;50956.25;;;-146.31;80.84
2036;BME280;23642;42.658;23.350;2022-12-29T08:39:56;50935.63;;;-146.31;81.07
2036;BME280;23642;42.658;23.350;2022-12-29T08:42:24;50962.44;;;-146.31;80.21
2036;BME280;23642;42.658;23.350;2022-12-29T08:44:56;50966.56;;;-146.31;80.10
2036;BME280;23642;42.658;23.350;2022-12-29T08:47:22;50993.38;;;-146.31;80.45
2036;BME280;23642;42.658;23.350;2022-12-29T08:49:49;51001.63;;;-146.31;80.16
2036;BME280;23642;42.658;23.350;2022-12-29T08:52:16;50987.19;;;-146.31;79.67
2036;BME280;23642;42.658;23.350;2022-12-29T08:54:43;51009.88;;;-146.31;79.36
2036;BME280;23642;42.658;23.350;2022-12-29T08:57:11;51030.50;;;-146.31;79.59
2036;BME280;23642;42.658;23.350;2022-12-29T08:59:38;51026.38;;;-146.31;79.07
2036;BME280;23642;42.658;23.350;2022-12-29T09:02:05;51014.00;;;-146.31;78.82
2036;BME280;23642;42.658;23.350;2022-12-29T09:04:32;51032.56;;;-146.31;78.47
2036;BME280;23642;42.658;23.350;2022-12-29T09:06:58;51020.19;;;-146.31;78.43
2036;BME280;23642;42.658;23.350;2022-12-29T09:09:25;51077.97;;;-146.31;77.65
2036;BME280;23642;42.658;23.350;2022-12-29T09:11:52;51086.22;;;-146.31;77.27
2036;BME280;23642;42.658;23.350;2022-12-29T09:14:20;51034.63;;;-146.31;77.72
2036;BME280;23642;42.658;23.350;2022-12-29T09:16:47;51092.41;;;-146.31;78.05
2036;BME280;23642;42.658;23.350;2022-12-29T09:19:31;51088.28;;;-146.31;79.32
2036;BME280;23642;42.658;23.350;2022-12-29T09:21:57;51057.31;;;-146.31;79.11
2036;BME280;23642;42.658;23.350;2022-12-29T09:24:24;51077.97;;;-146.31;78.72
2036;BME280;23642;42.658;23.350;2022-12-29T09:26:51;51065.56;;;-146.31;78.80
2036;BME280;23642;42.658;23.350;2022-12-29T09:29:17;51088.28;;;-146.31;78.92
2036;BME280;23642;42.658;23.350;2022-12-29T09:31:46;51113.03;;;-146.31;79.47
2036;BME280;23642;42.658;23.350;2022-12-29T09:34:12;51092.41;;;-146.31;79.00
2036;BME280;23642;42.658;23.350;2022-12-29T09:36:39;51092.41;;;-146.31;77.97
2036;BME280;23642;42.658;23.350;2022-12-29T09:39:06;51117.16;;;-146.31;78.34
2036;BME280;23642;42.658;23.350;2022-12-29T09:41:37;51102.72;;;-146.31;78.15
2036;BME280;23642;42.658;23.350;2022-12-29T09:44:11;51141.91;;;-146.31;78.96
2036;BME280;23642;42.658;23.350;2022-12-29T09:46:42;51127.47;;;-146.31;79.64
2036;BME280;23642;42.658;23.350;2022-12-29T09:49:20;51088.28;;;-146.31;78.88
2036;BME280;23642;42.658;23.350;2022-12-29T09:51:53;51096.53;;;-146.31;77.74
2036;BME280;23642;42.658;23.350;2022-12-29T09:54:27;51106.84;;;-146.31;78.05
2036;BME280;23642;42.658;23.350;2022-12-29T09:56:58;51135.72;;;-146.31;77.72
2036;BME280;23642;42.658;23.350;2022-12-29T09:59:30;51115.09;;;-146.31;77.16
2036;BME280;23642;42.658;23.350;2022-12-29T10:02:06;51102.72;;;-146.31;77.38
2036;BME280;23642;42.658;23.350;2022-12-29T10:04:41;51104.78;;;-146.31;77.72
2036;BME280;23642;42.658;23.350;2022-12-29T10:07:11;51125.41;;;-146.31;78.04
2036;BME280;23642;42.658;23.350;2022-12-29T10:09:44;51123.34;;;-146.31;78.50
2036;BME280;23642;42.658;23.350;2022-12-29T10:12:22;51102.72;;;-146.31;78.31
2036;BME280;23642;42.658;23.350;2022-12-29T10:14:59;51113.03;;;-146.31;78.47
2036;BME280;23642;42.658;23.350;2022-12-29T10:17:35;51123.34;;;-146.31;78.27
2036;BME280;23642;42.658;23.350;2022-12-29T10:20:19;51106.84;;;-146.31;77.93
2036;BME280;23642;42.658;23.350;2022-12-29T10:23:01;51094.47;;;-146.31;78.25
2036;BME280;23642;42.658;23.350;2022-12-29T10:25:37;51113.03;;;-146.31;78.52
2036;BME280;23642;42.658;23.350;2022-12-29T10:28:10;51113.03;;;-146.31;77.63
2036;BME280;23642;42.658;23.350;2022-12-29T10:30:43;51135.72;;;-146.31;77.20
2036;BME280;23642;42.658;23.350;2022-12-29T10:33:15;51148.09;;;-146.31;77.91
2036;BME280;23642;42.658;23.350;2022-12-29T10:35:50;51104.78;;;-146.31;77.82
2036;BME280;23642;42.658;23.350;2022-12-29T10:38:23;51110.97;;;-146.31;77.23
2036;BME280;23642;42.658;23.350;2022-12-29T10:40:56;51141.91;;;-146.31;76.15
2036;BME280;23642;42.658;23.350;2022-12-29T10:43:27;51096.53;;;-146.31;76.59
2036;BME280;23642;42.658;23.350;2022-12-29T10:45:56;51125.41;;;-146.31;75.72
2036;BME280;23642;42.658;23.350;2022-12-29T10:48:25;51102.72;;;-146.31;75.88
2036;BME280;23642;42.658;23.350;2022-12-29T10:50:58;51135.72;;;-146.31;75.15
2036;BME280;23642;42.658;23.350;2022-12-29T10:53:34;51152.22;;;-146.31;75.52
2036;BME280;23642;42.658;23.350;2022-12-29T10:56:02;51176.97;;;-146.31;76.37
2036;BME280;23642;42.658;23.350;2022-12-29T10:58:31;51168.72;;;-146.31;76.54
2036;BME280;23642;42.658;23.350;2022-12-29T11:00:58;51160.47;;;-146.31;77.00
2036;BME280;23642;42.658;23.350;2022-12-29T11:03:52;51162.53;;;-146.31;75.50
2036;BME280;23642;42.658;23.350;2022-12-29T11:06:27;51150.16;;;-146.31;76.95
2036;BME280;23642;42.658;23.350;2022-12-29T11:08:57;51160.47;;;-146.31;75.75
2036;BME280;23642;42.658;23.350;2022-12-29T11:11:27;51150.16;;;-146.31;75.90
2036;BME280;23642;42.658;23.350;2022-12-29T11:13:59;51162.53;;;-146.31;75.90
2036;BME280;23642;42.658;23.350;2022-12-29T11:16:29;51137.78;;;-146.31;76.02
2036;BME280;23642;42.658;23.350;2022-12-29T11:18:57;51141.91;;;-146.31;75.99
2036;BME280;23642;42.658;23.350;2022-12-29T11:21:31;51150.16;;;-146.31;75.95
2036;BME280;23642;42.658;23.350;2022-12-29T11:24:00;51148.09;;;-146.31;75.05
2036;BME280;23642;42.658;23.350;2022-12-29T11:26:28;51162.53;;;-146.31;75.10
2036;BME280;23642;42.658;23.350;2022-12-29T11:29:20;51160.47;;;-146.31;75.90
2036;BME280;23642;42.658;23.350;2022-12-29T11:31:49;51166.66;;;-146.31;75.97
2036;BME280;23642;42.658;23.350;2022-12-29T11:34:18;51150.16;;;-146.31;76.30
2036;BME280;23642;42.658;23.350;2022-12-29T11:36:46;51160.47;;;-146.31;76.28
2036;BME280;23642;42.658;23.350;2022-12-29T11:39:33;51148.09;;;-146.31;75.47
2036;BME280;23642;42.658;23.350;2022-12-29T11:42:10;51191.41;;;-146.31;74.90
2036;BME280;23642;42.658;23.350;2022-12-29T11:44:43;51174.91;;;-146.31;74.68
2036;BME280;23642;42.658;23.350;2022-12-29T11:47:19;51174.91;;;-146.31;75.21
2036;BME280;23642;42.658;23.350;2022-12-29T11:49:50;51148.09;;;-146.31;75.18
2036;BME280;23642;42.658;23.350;2022-12-29T11:52:25;51174.91;;;-146.31;74.74
2036;BME280;23642;42.658;23.350;2022-12-29T11:54:56;51189.34;;;-146.31;73.85
2036;BME280;23642;42.658;23.350;2022-12-29T11:57:24;51176.97;;;-146.31;74.47
2036;BME280;23642;42.658;23.350;2022-12-29T11:59:55;51195.53;;;-146.31;73.40
2036;BME280;23642;42.658;23.350;2022-12-29T12:02:31;51195.53;;;-146.31;73.60
2036;BME280;23642;42.658;23.350;2022-12-29T12:05:10;51179.03;;;-146.31;73.04
2036;BME280;23642;42.658;23.350;2022-12-29T12:07:42;51207.91;;;-146.31;73.47
2036;BME280;23642;42.658;23.350;2022-12-29T12:10:16;51185.22;;;-146.31;72.33
2036;BME280;23642;42.658;23.350;2022-12-29T12:12:52;51193.47;;;-146.31;72.22
2036;BME280;23642;42.658;23.350;2022-12-29T12:15:24;51214.09;;;-146.31;71.23
2036;BME280;23642;42.658;23.350;2022-12-29T12:17:57;51232.66;;;-146.31;71.95
2036;BME280;23642;42.658;23.350;2022-12-29T12:20:36;51205.84;;;-146.31;70.80
2036;BME280;23642;42.658;23.350;2022-12-29T12:23:22;51222.34;;;-146.31;71.00
2036;BME280;23642;42.658;23.350;2022-12-29T12:25:57;51238.84;;;-146.31;71.25
2036;BME280;23642;42.658;23.350;2022-12-29T12:28:34;51257.41;;;-146.31;71.10
2036;BME280;23642;42.658;23.350;2022-12-29T12:31:06;51224.41;;;-146.31;71.10
2036;BME280;23642;42.658;23.350;2022-12-29T12:33:41;51228.53;;;-146.31;70.48
2036;BME280;23642;42.658;23.350;2022-12-29T12:36:21;51261.56;;;-146.31;70.18
2036;BME280;23642;42.658;23.350;2022-12-29T12:38:55;51265.69;;;-146.31;69.86
2036;BME280;23642;42.658;23.350;2022-12-29T12:41:36;51280.13;;;-146.31;71.30
2036;BME280;23642;42.658;23.350;2022-12-29T12:44:11;51273.94;;;-146.31;72.35
2036;BME280;23642;42.658;23.350;2022-12-29T12:47:00;51304.88;;;-146.31;72.24
2036;BME280;23642;42.658;23.350;2022-12-29T12:53:03;51296.63;;;-146.31;72.58
2036;BME280;23642;42.658;23.350;2022-12-29T12:55:49;51302.81;;;-146.31;73.13
2036;BME280;23642;42.658;23.350;2022-12-29T12:58:26;51288.38;;;-146.31;73.84
2036;BME280;23642;42.658;23.350;2022-12-29T13:01:11;51282.19;;;-146.31;74.19
2036;BME280;23642;42.658;23.350;2022-12-29T13:03:50;51294.56;;;-146.31;73.42